Data for 08/09/2010

Time Sea-Level Adjusted Pressure Absolute Pressure Temperature Relative Humidity Dew Point   
(mb) (inHg) (mb) (inHg) (C) (F) (%) (C) (F)
00:05 1017 30.03 846 24.98 13.6 56.5 71 8.4 47.2
00:10 1017 30.03 846 24.98 13.7 56.7 68 8 46.4
00:15 1017 30.03 846 24.98 14 57.1 68 8.3 46.9
00:20 1017 30.03 846 24.98 14 57.2 68 8.2 46.7
00:25 1017 30.03 846 24.98 13.9 57.1 67 8 46.4
00:30 1017 30.03 846 24.98 14 57.1 67 8.1 46.5
00:35 1017 30.03 846 24.98 14 57.2 66 7.9 46.2
00:40 1017 30.03 846 24.98 14.1 57.3 67 8.1 46.6
00:45 1017 30.03 846 24.98 14 57.3 66 7.9 46.2
00:50 1017 30.03 846 24.98 14.1 57.4 65 7.8 46
00:55 1017 30.03 846 24.98 14.3 57.7 66 8 46.4
01:00 1017 30.03 846 24.98 14.3 57.8 66 8.2 46.7
01:05 1017 30.03 846 24.98 14.2 57.6 67 8.2 46.7
01:10 1017 30.03 846 24.98 14.1 57.4 67 8.2 46.8
01:15 1016 30 846 24.98 14 57.2 66 7.8 46.1
01:20 1016 30 846 24.98 14 57.3 66 7.8 46
01:25 1016 30 846 24.98 14.1 57.4 65 7.6 45.7
01:30 1016 30 846 24.98 14.5 58 62 7.4 45.3
01:35 1017 30.03 846 24.98 14.5 58 65 8.1 46.6
01:40 1017 30.03 846 24.98 14.1 57.4 68 8.4 47
01:45 1017 30.03 846 24.98 13.7 56.6 73 8.9 47.9
01:50 1017 30.03 846 24.98 13.4 56.1 70 8.1 46.6
01:55 1017 30.03 846 24.98 13.5 56.3 71 8.3 47
02:00 1017 30.03 846 24.98 13.5 56.3 71 8.4 47.2
02:05 1017 30.03 846 24.98 13.3 55.9 71 8.2 46.7
02:10 1017 30.03 846 24.98 13.4 56.1 72 8.5 47.4
02:15 1017 30.03 846 24.98 13.2 55.8 73 8.4 47.2
02:20 1017 30.03 846 24.98 13.2 55.8 72 8.4 47
02:25 1017 30.03 846 24.98 13.1 55.6 73 8.4 47.1
02:30 1017 30.03 846 24.98 13.2 55.8 70 7.9 46.2
02:35 1017 30.03 846 24.98 13.6 56.5 63 6.8 44.3
02:40 1017 30.03 846 24.98 14.4 58 63 7.4 45.4
02:45 1017 30.03 846 24.98 14.3 57.7 64 7.7 45.9
02:50 1017 30.03 846 24.98 13.8 56.9 67 7.8 46
02:55 1017 30.03 846 24.98 13.4 56 68 7.6 45.6
03:00 1017 30.03 846 24.98 13.3 56 66 7.2 45
03:05 1017 30.03 846 24.98 13.4 56.2 67 7.4 45.3
03:10 1017 30.03 846 24.98 13.6 56.4 63 6.8 44.2
03:15 1017 30.03 846 24.98 13.9 57 63 7 44.5
03:20 1017 30.03 846 24.98 13.8 56.9 65 7.3 45.2
03:25 1017 30.03 846 24.98 13.4 56.1 65 7 44.5
03:30 1017 30.03 846 24.98 13.4 56 65 7.1 44.8
03:35 1017 30.03 846 24.98 13.2 55.7 68 7.3 45.2
03:40 1017 30.03 846 24.98 12.9 55.3 67 7 44.6
03:45 1017 30.03 846 24.98 12.8 55 67 6.9 44.5
03:50 1017 30.03 846 24.98 12.7 54.8 68 7 44.6
03:55 1017 30.03 846 24.98 12.6 54.6 67 6.7 44
04:00 1017 30.03 846 24.98 12.7 54.8 66 6.6 44
04:05 1017 30.03 846 24.98 12.8 55 67 6.9 44.3
04:10 1017 30.03 846 24.98 12.6 54.7 66 6.5 43.7
04:15 1017 30.03 846 24.98 12.6 54.6 68 6.8 44.3
04:20 1017 30.03 846 24.98 12.3 54.1 69 6.9 44.3
04:25 1017 30.03 846 24.98 12.1 53.9 69 6.7 44.1
04:30 1017 30.03 846 24.98 12.2 54 68 6.5 43.7
04:35 1017 30.03 846 24.98 12.3 54.1 66 6.2 43.1
04:40 1017 30.03 846 24.98 12.3 54.1 67 6.4 43.5
04:45 1017 30.03 846 24.98 12.1 53.8 69 6.6 43.8
04:50 1017 30.03 846 24.98 12.1 53.8 67 6.2 43.2
04:55 1017 30.03 846 24.98 12.5 54.4 64 6 42.8
05:00 1017 30.03 846 24.98 12.5 54.5 70 7.2 44.9
05:05 1017 30.03 846 24.98 12.2 53.9 72 7.2 45
05:10 1017 30.03 846 24.98 11.8 53.2 73 7.2 44.9
05:15 1017 30.03 846 24.98 11.2 52.2 73 6.6 43.9
05:20 1017 30.03 846 24.98 11 51.8 73 6.3 43.4
05:25 1017 30.03 846 24.98 10.7 51.3 76 6.6 43.9
05:30 1017 30.03 846 24.98 10.5 50.9 76 6.5 43.8
05:35 1017 30.03 846 24.98 10.8 51.4 73 6.1 43.1
05:40 1017 30.03 846 24.98 11 51.8 73 6.5 43.6
05:45 1017 30.03 846 24.98 11.2 52.1 72 6.3 43.3
05:50 1017 30.03 846 24.98 11.1 52.1 73 6.4 43.6
05:55 1017 30.03 846 24.98 11.5 52.7 68 5.9 42.6
06:00 1017 30.03 846 24.98 11.8 53.3 68 6.1 43
06:05 1017 30.03 846 24.98 11.7 53.1 69 6.2 43.2
06:10 1017 30.03 846 24.98 11.5 52.7 69 6 42.8
06:15 1017 30.03 846 24.98 11.6 52.8 68 6 42.8
06:20 1017 30.03 846 24.98 11.4 52.6 71 6.5 43.6
06:25 1017 30.03 846 24.98 11.2 52.1 72 6.4 43.6
06:30 1017 30.03 846 24.98 10.9 51.6 74 6.4 43.5
06:35 1017 30.03 846 24.98 10.7 51.3 72 5.9 42.5
06:40 1017 30.03 846 24.98 10.9 51.5 73 6.2 43.2
06:45 1017 30.03 846 24.98 11 51.8 70 5.8 42.5
06:50 1017 30.03 846 24.98 11.3 52.3 68 5.6 42.2
06:55 1017 30.03 846 24.98 11.7 53.1 66 5.6 42.1
07:00 1017 30.03 847 25.01 11.9 53.4 65 5.7 42.3
07:05 1017 30.03 847 25.01 12 53.5 66 5.8 42.4
07:10 1017 30.03 847 25.01 12 53.6 65 5.6 42.2
07:15 1018 30.06 847 25.01 12.4 54.4 63 5.6 42.1
07:20 1018 30.06 847 25.01 12.8 55 62 5.7 42.3
07:25 1018 30.06 847 25.01 12.9 55.2 62 5.9 42.6
07:30 1018 30.06 847 25.01 13 55.3 62 5.8 42.5
07:35 1018 30.06 847 25.01 13.2 55.8 61 5.8 42.5
07:40 1018 30.06 847 25.01 13.3 55.9 64 6.6 43.8
07:45 1018 30.06 847 25.01 13.2 55.7 63 6.4 43.5
07:50 1018 30.06 847 25.01 13 55.5 66 6.9 44.4
07:55 1018 30.06 847 25.01 12.8 55.1 66 6.6 43.9
08:00 1018 30.06 847 25.01 13.1 55.6 66 6.9 44.4
08:05 1018 30.06 847 25.01 13.3 56 63 6.5 43.8
08:10 1018 30.06 847 25.01 13.6 56.4 62 6.4 43.6
08:15 1018 30.06 847 25.01 13.8 56.9 61 6.6 43.9
08:20 1018 30.06 847 25.01 13.9 56.9 65 7.4 45.2
08:25 1018 30.06 847 25.01 14.1 57.3 63 7.1 44.8
08:30 1018 30.06 847 25.01 14.2 57.6 61 6.9 44.5
08:35 1018 30.06 847 25.01 14.6 58.2 60 7.1 44.7
08:40 1018 30.06 847 25.01 14.9 58.7 63 7.9 46.2
08:45 1018 30.06 847 25.01 14.6 58.3 64 8.1 46.5
08:50 1018 30.06 847 25.01 14.4 57.9 63 7.4 45.4
08:55 1018 30.06 847 25.01 14.6 58.2 60 6.9 44.5
09:00 1018 30.06 847 25.01 14.7 58.5 63 7.7 45.9
09:05 1018 30.06 847 25.01 14.8 58.6 64 8 46.4
09:10 1018 30.06 847 25.01 15.3 59.5 59 7.4 45.3
09:15 1018 30.06 847 25.01 16 60.8 54 6.9 44.4
09:20 1018 30.06 847 25.01 16.9 62.4 51 6.9 44.4
09:25 1018 30.06 847 25.01 17.5 63.5 50 7.1 44.7
09:30 1018 30.06 847 25.01 17.3 63.1 54 8.1 46.6
09:35 1018 30.06 847 25.01 17.2 62.9 55 8.1 46.6
09:40 1018 30.06 847 25.01 17.3 63.1 54 8 46.5
09:45 1018 30.06 847 25.01 18.1 64.5 53 8.5 47.3
09:50 1018 30.06 847 25.01 18 64.5 54 8.6 47.5
09:55 1018 30.06 847 25.01 18.2 64.7 54 8.8 47.8
10:00 1018 30.06 847 25.01 17 62.7 56 8.3 46.9
10:05 1018 30.06 847 25.01 16.9 62.3 58 8.5 47.4
10:10 1018 30.06 847 25.01 17.2 62.9 56 8.4 47.1
10:15 1018 30.06 847 25.01 17.5 63.6 56 8.6 47.5
10:20 1018 30.06 847 25.01 17.4 63.2 55 8.2 46.8
10:25 1018 30.06 847 25.01 17.4 63.4 54 8.2 46.8
10:30 1018 30.06 847 25.01 17.7 63.8 54 8.4 47.2
10:35 1018 30.06 847 25.01 17.9 64.1 55 8.8 47.8
10:40 1018 30.06 847 25.01 18.3 65 53 8.8 47.9
10:45 1018 30.06 847 25.01 18.8 65.9 52 9 48.2
10:50 1018 30.06 847 25.01 19.4 67 49 8.5 47.3
10:55 1018 30.06 847 25.01 19.3 66.7 50 8.8 47.9
11:00 1018 30.06 847 25.01 19.1 66.3 48 8.1 46.5
11:05 1018 30.06 847 25.01 18.7 65.7 50 8.3 47
11:10 1018 30.06 847 25.01 18.4 65.1 52 8.4 47
11:15 1018 30.06 847 25.01 18.6 65.5 51 8.4 47.1
11:20 1018 30.06 847 25.01 19.1 66.3 53 9.3 48.7
11:25 1018 30.06 847 25.01 19.1 66.3 50 8.7 47.6
11:30 1018 30.06 847 25.01 19.3 66.8 52 9.3 48.8
11:35 1018 30.06 847 25.01 19.7 67.4 59 11.4 52.6
11:40 1018 30.06 847 25.01 18.9 66 59 10.9 51.6
11:45 1018 30.06 847 25.01 19.7 67.5 53 10.1 50.1
11:50 1018 30.06 847 25.01 21.3 70.4 51 10.8 51.4
11:55 1018 30.06 847 25.01 20.5 68.9 55 11.2 52.2
12:00 1017 30.03 847 25.01 20 67.9 51 9.8 49.6
12:05 1017 30.03 847 25.01 21.2 70.1 48 10 50
12:10 1017 30.03 847 25.01 21.2 70.1 50 10.5 50.8
12:15 1017 30.03 846 24.98 20.9 69.7 42 7.8 46
12:20 1017 30.03 846 24.98 21.1 69.9 44 8.4 47.1
12:25 1017 30.03 847 25.01 21.4 70.6 41 7.7 45.8
12:30 1017 30.03 846 24.98 22.1 71.7 41 8.3 47
12:35 1017 30.03 846 24.98 23.1 73.6 39 8.7 47.6
12:40 1017 30.03 846 24.98 23.5 74.3 39 9.1 48.3
12:45 1017 30.03 846 24.98 22.4 72.3 42 9.1 48.4
12:50 1017 30.03 846 24.98 22.6 72.6 40 8.7 47.6
12:55 1017 30.03 846 24.98 23.8 74.8 37 8.4 47.1
13:00 1017 30.03 846 24.98 23.4 74.1 39 8.7 47.6
13:05 1017 30.03 846 24.98 22.9 73.3 38 8 46.4
13:10 1017 30.03 846 24.98 22.4 72.3 42 9.2 48.5
13:15 1017 30.03 846 24.98 23.3 74 39 8.9 48
13:20 1017 30.03 846 24.98 23.6 74.4 37 8.2 46.8
13:25 1017 30.03 846 24.98 23.2 73.7 39 8.8 47.8
13:30 1017 30.03 846 24.98 23.2 73.7 38 8.2 46.7
13:35 1017 30.03 846 24.98 23.4 74.1 36 7.6 45.7
13:40 1017 30.03 846 24.98 23.4 74 37 8 46.4
13:45 1017 30.03 846 24.98 23.3 74 38 8.5 47.2
13:50 1017 30.03 846 24.98 23 73.3 40 8.9 48
13:55 1017 30.03 846 24.98 22.9 73.3 39 8.4 47.1
14:00 1017 30.03 846 24.98 23.6 74.5 37 8.2 46.8
14:05 1017 30.03 846 24.98 23.5 74.3 37 8.1 46.5
14:10 1017 30.03 846 24.98 23.1 73.6 37 7.9 46.3
14:15 1017 30.03 846 24.98 23.2 73.7 39 8.7 47.7
14:20 1016 30 846 24.98 23.5 74.2 41 9.5 49.1
14:25 1016 30 846 24.98 22.8 73.1 40 8.7 47.7
14:30 1017 30.03 846 24.98 21.9 71.3 42 8.4 47.1
14:35 1017 30.03 846 24.98 21.8 71.2 40 7.7 45.8
14:40 1016 30 846 24.98 22.1 71.7 39 7.6 45.7
14:45 1016 30 846 24.98 22.2 71.9 40 8.1 46.5
14:50 1016 30 846 24.98 22.5 72.5 40 8.3 46.9
14:55 1016 30 846 24.98 22.7 72.9 38 8 46.3
15:00 1016 30 845 24.95 22.6 72.7 39 8.1 46.5
15:05 1016 30 846 24.98 22.7 72.9 39 8.2 46.7
15:10 1016 30 846 24.98 22.5 72.5 41 8.9 48
15:15 1017 30.03 846 24.98 21.6 71 49 10.8 51.4
15:20 1017 30.03 846 24.98 17.5 63.6 66 11.3 52.3
15:25 1017 30.03 846 24.98 16.4 61.6 76 12.2 53.9
15:30 1017 30.03 847 25.01 16.9 62.5 72 11.8 53.3
15:35 1017 30.03 847 25.01 17.5 63.6 70 12.1 53.8
15:40 1017 30.03 847 25.01 17.7 63.9 65 11.1 51.9
15:45 1017 30.03 847 25.01 18 64.5 63 10.9 51.6
15:50 1017 30.03 847 25.01 18.2 64.8 62 10.9 51.6
15:55 1017 30.03 847 25.01 18 64.4 61 10.5 51
16:00 1017 30.03 847 25.01 18.3 65 59 10.3 50.5
16:05 1017 30.03 847 25.01 18.4 65.1 64 11.5 52.7
16:10 1017 30.03 847 25.01 18.1 64.6 67 12 53.6
16:15 1017 30.03 846 24.98 18 64.5 67 11.8 53.2
16:20 1017 30.03 846 24.98 18.3 64.9 68 12.4 54.3
16:25 1017 30.03 846 24.98 17.9 64.3 68 12.1 53.8
16:30 1017 30.03 846 24.98 17.6 63.6 67 11.4 52.6
16:35 1017 30.03 846 24.98 17.8 64 66 11.4 52.5
16:40 1017 30.03 846 24.98 18.6 65.4 60 10.7 51.2
16:45 1017 30.03 846 24.98 18.9 66.1 55 9.9 49.9
16:50 1017 30.03 846 24.98 19.4 67 58 11.1 51.9
16:55 1017 30.03 846 24.98 20.2 68.3 60 12.3 54.1
17:00 1017 30.03 846 24.98 19.4 66.9 60 11.5 52.6
17:05 1017 30.03 846 24.98 18.7 65.6 61 11.1 51.9
17:10 1016 30 846 24.98 19.1 66.3 54 9.7 49.5
17:15 1016 30 846 24.98 19.1 66.3 53 9.4 49
17:20 1016 30 846 24.98 19.2 66.6 53 9.6 49.3
17:25 1016 30 845 24.95 19.5 67.1 51 9.1 48.4
17:30 1016 30 846 24.98 19.7 67.4 50 8.9 48.1
17:35 1017 30.03 846 24.98 19.8 67.6 51 9.6 49.2
17:40 1017 30.03 846 24.98 20 67.9 50 9.5 49
17:45 1017 30.03 846 24.98 20.2 68.3 52 10.1 50.3
17:50 1017 30.03 846 24.98 19.6 67.3 58 11.3 52.3
17:55 1017 30.03 846 24.98 18.9 66 59 10.8 51.5
18:00 1016 30 846 24.98 18.6 65.5 60 10.7 51.2
18:05 1016 30 846 24.98 18.6 65.5 61 11 51.7
18:10 1016 30 846 24.98 18.8 65.9 57 10.3 50.5
18:15 1016 30 845 24.95 18.9 66 59 10.9 51.5
18:20 1016 30 845 24.95 18.6 65.5 60 10.9 51.6
18:25 1016 30 845 24.95 18.2 64.7 62 10.8 51.4
18:30 1016 30 845 24.95 17.8 64.1 60 10 50.1
18:35 1016 30 846 24.98 17.8 64 62 10.4 50.7
18:40 1016 30 845 24.95 17.6 63.7 63 10.6 51.1
18:45 1016 30 845 24.95 17.6 63.6 67 11.5 52.7
18:50 1016 30 846 24.98 17.1 62.8 67 11.1 52
18:55 1017 30.03 846 24.98 17.1 62.7 68 11.3 52.3
19:00 1017 30.03 846 24.98 16.8 62.2 73 11.9 53.5
19:05 1017 30.03 846 24.98 16.1 61 77 12.1 53.8
19:10 1017 30.03 846 24.98 15.6 60.1 79 12 53.6
19:15 1017 30.03 846 24.98 15.3 59.5 82 12.3 54.1
19:20 1017 30.03 846 24.98 14.8 58.7 85 12.3 54.1
19:25 1017 30.03 846 24.98 14.8 58.6 82 11.7 53
19:30 1017 30.03 846 24.98 14.8 58.7 81 11.6 52.9
19:35 1017 30.03 846 24.98 14.9 58.8 78 11.1 52
19:40 1017 30.03 846 24.98 14.9 58.7 81 11.6 52.9
19:45 1017 30.03 846 24.98 14.8 58.7 79 11.2 52.2
19:50 1016 30 846 24.98 14.9 58.8 79 11.4 52.5
19:55 1016 30 846 24.98 15 58.9 79 11.3 52.4
20:00 1016 30 845 24.95 15.1 59.1 78 11.3 52.4
20:05 1016 30 845 24.95 15.1 59.1 79 11.5 52.8
20:10 1016 30 845 24.95 15 59 77 11.1 52
20:15 1016 30 845 24.95 15 59.1 79 11.4 52.6
20:20 1016 30 845 24.95 14.9 58.7 76 10.7 51.2
20:25 1016 30 845 24.95 15 59 76 10.8 51.4
20:30 1016 30 845 24.95 15.1 59.2 76 11 51.8
20:35 1016 30 845 24.95 15.1 59.1 76 10.8 51.5
20:40 1016 30 845 24.95 15 59.1 75 10.7 51.2
20:45 1016 30 845 24.95 15 59 75 10.6 51.1
20:50 1016 30 845 24.95 15 58.9 76 10.7 51.3
20:55 1016 30 845 24.95 14.9 58.8 75 10.6 51.1
21:00 1016 30 845 24.95 14.8 58.7 76 10.6 51.1
21:05 1016 30 845 24.95 14.9 58.8 73 10.2 50.3
21:10 1016 30 845 24.95 14.9 58.9 73 10.3 50.5
21:15 1016 30 845 24.95 14.7 58.4 74 10.2 50.3
21:20 1016 30 845 24.95 14.6 58.3 74 10 50.1
21:25 1016 30 845 24.95 14.7 58.4 72 9.7 49.5
21:30 1016 30 845 24.95 14.8 58.6 75 10.5 50.9
21:35 1016 30 845 24.95 14.8 58.7 72 9.8 49.7
21:40 1016 30 845 24.95 14.8 58.6 71 9.7 49.5
21:45 1016 30 846 24.98 14.9 58.7 71 9.7 49.5
21:50 1016 30 846 24.98 14.8 58.6 71 9.7 49.4
21:55 1016 30 846 24.98 14.8 58.7 71 9.6 49.3
22:00 1017 30.03 846 24.98 14.8 58.7 71 9.8 49.6
22:05 1017 30.03 846 24.98 14.9 58.7 71 9.7 49.5
22:10 1017 30.03 846 24.98 14.8 58.7 70 9.6 49.2
22:15 1017 30.03 846 24.98 14.9 58.8 70 9.6 49.2
22:20 1017 30.03 846 24.98 15.1 59.2 68 9.3 48.8
22:25 1017 30.03 846 24.98 15.2 59.4 73 10.4 50.7
22:30 1017 30.03 846 24.98 15.2 59.4 73 10.4 50.7
22:35 1017 30.03 846 24.98 15 59 75 10.6 51.2
22:40 1017 30.03 847 25.01 14.6 58.3 75 10.2 50.4
22:45 1017 30.03 847 25.01 14.5 58.1 75 10.2 50.3
22:50 1017 30.03 847 25.01 14.6 58.2 78 10.7 51.3
22:55 1017 30.03 847 25.01 14.7 58.4 75 10.4 50.7
23:00 1018 30.06 847 25.01 14.7 58.5 75 10.3 50.6
23:05 1018 30.06 847 25.01 14.5 58.2 78 10.8 51.4
23:10 1018 30.06 847 25.01 14.4 57.8 76 10.2 50.3
23:15 1018 30.06 847 25.01 14.3 57.7 76 10.1 50.1
23:20 1018 30.06 847 25.01 14.2 57.6 75 9.9 49.8
23:25 1018 30.06 847 25.01 14.3 57.7 76 10.1 50.1
23:30 1018 30.06 847 25.01 14.4 57.9 74 9.8 49.7
23:35 1018 30.06 847 25.01 14.5 58.1 74 10 49.9
23:40 1018 30.06 847 25.01 14.4 58 75 10.1 50.2
23:45 1018 30.06 847 25.01 14.5 58 74 9.8 49.7
23:50 1018 30.06 847 25.01 14.5 58.2 74 9.9 49.8
23:55 1018 30.06 847 25.01 14.5 58.1 74 9.9 49.8
24:00 1018 30.06 847 25.01 14.5 58.1 73 9.8 49.7